Arverne, New York
Current Conditions -  °F | °C
As of 8:51 AM on Friday 24 Oct 2014 (Local Time) from KJFK Reporting Station
Broken Clouds Broken Clouds  
Wind Chill: 53°   Ceiling: 16000
Heat Index: 53°   Visibility: 10mi
Dew Point: 43°   Wind: 15mph
Humidity: 69%   Direction: 330°NNW
Pressure: 29.82"   Gusts: NA
Location:  40.59°N, 73.8°W
Report Text: KJFK 241251Z 33013KT 10SM FEW043 SCT085 BKN160 BKN250 12/06 A2982 RMK AO2 SLP097 T01170061 $
Loading
Personal Weather Stations






























Interactive Weather Map
Tropical Storm Tracking
New forecast layout! Learn more

10-Day Weather Forecast

Advertisements
Track Severe Weather on mobile